Waynesville, Missouri
Current Conditions -  °F | °C
As of 3:58 AM on Friday 24 Oct 2014 (Local Time) from KTBN Reporting Station
Overcast Overcast  
Wind Chill: 53°   Ceiling: 600
Heat Index: 53°   Visibility: 10mi
Dew Point: 53°   Wind: 2mph
Humidity: 99%   Direction: 190°S
Pressure: 30.1"   Gusts: NA
Location:  37.83°N, 92.2°W
Report Text: KTBN 240858Z AUTO 19002KT 10SM OVC006 12/12 A3010 RMK AO2 SLP194 T01180116 55006
Loading
Personal Weather Stations






























Interactive Weather Map
Tropical Storm Tracking
New forecast layout! Learn more

10-Day Weather Forecast

Advertisements
Track Severe Weather on mobile